createdAt,value
2022-11-16T00:02:14.173Z,10.60
2022-11-16T00:04:42.709Z,9.13
2022-11-16T00:07:11.176Z,8.77
2022-11-16T00:09:40.486Z,8.80
2022-11-16T00:12:11.402Z,9.27
2022-11-16T00:14:39.578Z,9.07
2022-11-16T00:17:09.207Z,8.77
2022-11-16T00:19:39.739Z,9.63
2022-11-16T00:22:07.897Z,9.57
2022-11-16T00:24:36.062Z,8.33
2022-11-16T00:27:04.219Z,9.00
2022-11-16T00:29:32.358Z,9.00
2022-11-16T00:32:03.504Z,9.50
2022-11-16T00:34:33.022Z,8.93
2022-11-16T00:37:01.113Z,10.30
2022-11-16T00:39:29.487Z,9.00
2022-11-16T00:41:57.755Z,9.17
2022-11-16T00:44:25.903Z,9.50
2022-11-16T00:46:53.989Z,9.90
2022-11-16T00:49:22.196Z,10.07
2022-11-16T00:51:51.733Z,10.70
2022-11-16T00:54:22.353Z,10.03
2022-11-16T00:56:50.583Z,10.10
2022-11-16T00:59:20.773Z,10.20
2022-11-16T01:01:49.119Z,9.77
2022-11-16T01:04:17.251Z,11.07
2022-11-16T01:06:52.105Z,11.07
2022-11-16T01:09:20.379Z,10.70
2022-11-16T01:12:05.886Z,9.90
2022-11-16T01:14:34.269Z,10.17
2022-11-16T01:17:03.443Z,10.43
2022-11-16T01:19:31.734Z,10.47
2022-11-16T01:22:01.298Z,11.33
2022-11-16T01:24:29.641Z,10.13
2022-11-16T01:26:58.640Z,10.10
2022-11-16T01:29:26.919Z,10.50
2022-11-16T01:31:55.226Z,11.00
2022-11-16T01:34:24.554Z,10.93
2022-11-16T01:36:52.673Z,9.60
2022-11-16T01:39:22.227Z,10.20
2022-11-16T01:41:50.469Z,9.80
2022-11-16T01:45:01.784Z,10.33
2022-11-16T01:47:29.968Z,8.80
2022-11-16T01:50:02.546Z,8.97
2022-11-16T01:52:32.077Z,10.30
2022-11-16T01:55:04.720Z,9.67
2022-11-16T01:57:34.123Z,10.33
2022-11-16T02:00:03.451Z,10.10
2022-11-16T02:02:31.725Z,9.73
2022-11-16T02:05:00.093Z,10.10
2022-11-16T02:07:55.676Z,10.03
2022-11-16T02:10:31.161Z,9.97
2022-11-16T02:13:15.585Z,9.30
2022-11-16T02:15:49.346Z,9.33
2022-11-16T02:18:25.979Z,10.10
2022-11-16T02:21:02.026Z,11.07
2022-11-16T02:24:05.421Z,8.83
2022-11-16T02:27:07.412Z,9.17
2022-11-16T02:29:37.857Z,8.47
2022-11-16T02:32:08.721Z,9.87
2022-11-16T02:34:39.265Z,10.37
2022-11-16T02:37:07.887Z,9.97
2022-11-16T02:39:36.048Z,10.07
2022-11-16T02:42:04.191Z,9.50
2022-11-16T02:44:33.981Z,9.97
2022-11-16T02:47:05.653Z,10.90
2022-11-16T02:49:35.267Z,9.47
2022-11-16T02:52:04.748Z,10.03
2022-11-16T02:54:35.685Z,9.77
2022-11-16T02:57:26.703Z,10.87
2022-11-16T02:59:55.873Z,9.93
2022-11-16T03:02:26.673Z,9.77
2022-11-16T03:05:00.113Z,9.63
2022-11-16T03:07:30.283Z,10.00
2022-11-16T03:09:58.594Z,10.17
2022-11-16T03:12:28.657Z,10.57
2022-11-16T03:15:00.961Z,10.80
2022-11-16T03:17:31.591Z,8.50
2022-11-16T03:20:04.466Z,7.70
2022-11-16T03:22:34.802Z,8.10
2022-11-16T03:25:09.515Z,8.37
2022-11-16T03:27:39.212Z,9.27
2022-11-16T03:30:08.261Z,8.10
2022-11-16T03:32:41.373Z,8.03
2022-11-16T03:35:15.653Z,9.53
2022-11-16T03:37:46.064Z,10.07
2022-11-16T03:40:14.312Z,11.07
2022-11-16T03:42:43.691Z,10.63
2022-11-16T03:45:13.719Z,11.13
2022-11-16T03:47:43.446Z,11.73
2022-11-16T03:50:11.874Z,11.90
2022-11-16T03:52:40.197Z,11.87
2022-11-16T03:55:09.424Z,11.43
2022-11-16T03:57:37.664Z,11.30
2022-11-16T04:00:06.894Z,9.93
2022-11-16T04:02:35.128Z,10.53
2022-11-16T04:05:24.484Z,10.80
2022-11-16T04:08:13.145Z,10.77
2022-11-16T04:10:58.712Z,10.73
2022-11-16T04:13:46.845Z,10.87
2022-11-16T04:16:50.883Z,10.23
2022-11-16T04:19:36.646Z,10.40
2022-11-16T04:22:24.309Z,10.80
2022-11-16T04:24:53.967Z,11.30
2022-11-16T04:27:39.557Z,10.33
2022-11-16T04:30:13.167Z,11.27
2022-11-16T04:32:58.532Z,11.40
2022-11-16T04:35:42.062Z,10.80
2022-11-16T04:38:11.696Z,11.13
2022-11-16T04:40:40.054Z,9.60
2022-11-16T04:43:07.511Z,10.50
2022-11-16T04:45:54.150Z,9.53
2022-11-16T04:48:22.280Z,9.53
2022-11-16T04:50:50.493Z,9.33
2022-11-16T04:53:22.543Z,8.87
2022-11-16T04:55:57.991Z,8.37
2022-11-16T04:58:29.433Z,8.03
2022-11-16T05:00:57.639Z,8.40
2022-11-16T05:03:25.936Z,8.43
2022-11-16T05:05:57.115Z,8.20
2022-11-16T05:08:26.725Z,8.70
2022-11-16T05:10:54.985Z,8.23
2022-11-16T05:13:23.212Z,9.10
2022-11-16T05:15:51.887Z,8.93
2022-11-16T05:18:25.354Z,8.33
2022-11-16T05:21:01.295Z,9.37
2022-11-16T05:23:50.646Z,8.90
2022-11-16T05:26:20.199Z,8.10
2022-11-16T05:28:48.364Z,8.40
2022-11-16T05:31:16.641Z,9.43
2022-11-16T05:33:49.891Z,8.53
2022-11-16T05:36:20.076Z,8.67
2022-11-16T05:38:56.250Z,7.93
2022-11-16T05:41:27.163Z,7.87
2022-11-16T05:43:56.043Z,8.23
2022-11-16T05:46:31.220Z,8.67
2022-11-16T05:49:03.023Z,8.80
2022-11-16T05:51:31.301Z,9.10
2022-11-16T05:54:06.606Z,8.63
2022-11-16T05:56:36.282Z,9.40
2022-11-16T05:59:16.322Z,7.90
2022-11-16T06:02:04.013Z,9.00
2022-11-16T06:04:32.105Z,9.00
2022-11-16T06:07:00.377Z,9.20
2022-11-16T06:09:30.117Z,8.43
2022-11-16T06:11:58.729Z,7.60
2022-11-16T06:14:27.141Z,7.20
2022-11-16T06:17:02.286Z,9.10
2022-11-16T06:19:33.028Z,8.47
2022-11-16T06:22:04.151Z,7.80
2022-11-16T06:24:35.174Z,8.27
2022-11-16T06:27:06.224Z,8.37
2022-11-16T06:29:34.938Z,7.83
2022-11-16T06:32:03.103Z,7.23
2022-11-16T06:34:31.508Z,7.30
2022-11-16T06:37:08.591Z,7.33
2022-11-16T06:39:38.263Z,6.80
2022-11-16T06:42:06.598Z,7.00
2022-11-16T06:44:39.378Z,6.60
2022-11-16T06:47:09.156Z,6.73
2022-11-16T06:49:37.373Z,7.30
2022-11-16T06:52:07.281Z,6.37
2022-11-16T06:54:35.537Z,7.03
2022-11-16T06:57:18.705Z,8.53
2022-11-16T06:59:49.018Z,7.60
2022-11-16T07:02:17.376Z,8.20
2022-11-16T07:04:45.621Z,7.67
2022-11-16T07:07:18.379Z,7.67
2022-11-16T07:09:49.287Z,6.63
2022-11-16T07:12:22.891Z,5.53
2022-11-16T07:14:51.594Z,5.80
2022-11-16T07:17:23.486Z,6.50
2022-11-16T07:19:52.522Z,5.87
2022-11-16T07:22:20.807Z,5.40
2022-11-16T07:24:49.021Z,5.10
2022-11-16T07:27:17.167Z,5.93
2022-11-16T07:29:46.714Z,5.07
2022-11-16T07:32:14.880Z,4.73
2022-11-16T07:34:43.108Z,4.67
2022-11-16T07:37:11.286Z,4.07
2022-11-16T07:39:39.524Z,3.63
2022-11-16T07:42:12.363Z,4.20
2022-11-16T07:44:41.855Z,3.50
2022-11-16T07:47:11.372Z,3.40
2022-11-16T07:49:39.847Z,3.03
2022-11-16T07:52:12.482Z,3.40
2022-11-16T07:54:41.009Z,3.80
2022-11-16T07:57:09.192Z,2.90
2022-11-16T07:59:37.445Z,3.40
2022-11-16T08:02:06.033Z,3.97
2022-11-16T08:04:35.687Z,3.50
2022-11-16T08:07:05.319Z,3.63
2022-11-16T08:09:34.555Z,3.63
2022-11-16T08:12:02.681Z,2.97
2022-11-16T08:14:30.957Z,2.53
2022-11-16T08:16:59.222Z,3.03
2022-11-16T08:19:27.369Z,3.43
2022-11-16T08:21:56.875Z,3.50
2022-11-16T08:24:26.953Z,3.57
2022-11-16T08:26:57.217Z,3.40
2022-11-16T08:29:25.693Z,3.40
2022-11-16T08:31:53.872Z,3.87
2022-11-16T08:34:23.255Z,3.43
2022-11-16T08:36:51.503Z,3.57
2022-11-16T08:39:22.268Z,3.73
2022-11-16T08:41:50.453Z,4.03
2022-11-16T08:44:18.619Z,3.33
2022-11-16T08:46:46.735Z,3.63
2022-11-16T08:49:15.106Z,3.30
2022-11-16T08:51:43.306Z,2.73
2022-11-16T08:54:13.870Z,4.20
2022-11-16T08:56:43.479Z,3.80
2022-11-16T08:59:20.075Z,3.50
2022-11-16T09:01:50.118Z,4.20
2022-11-16T09:04:18.773Z,3.23
2022-11-16T09:06:46.995Z,3.27
2022-11-16T09:09:15.141Z,3.57
2022-11-16T09:11:44.973Z,3.60
2022-11-16T09:14:13.400Z,3.40
2022-11-16T09:16:41.580Z,3.47
2022-11-16T09:19:10.861Z,3.00
2022-11-16T09:21:45.700Z,3.00
2022-11-16T09:24:16.888Z,2.60
2022-11-16T09:26:46.679Z,2.80
2022-11-16T09:29:15.624Z,2.53
2022-11-16T09:31:43.794Z,2.40
2022-11-16T09:34:12.161Z,3.13
2022-11-16T09:36:40.449Z,2.20
2022-11-16T09:42:29.335Z,2.83
2022-11-16T09:45:04.879Z,3.30
2022-11-16T09:47:44.836Z,2.67
2022-11-16T09:50:30.727Z,3.03
2022-11-16T09:53:01.084Z,2.50
2022-11-16T09:55:33.637Z,3.60
2022-11-16T09:58:13.011Z,2.70
2022-11-16T10:00:41.801Z,2.60
2022-11-16T10:03:14.263Z,3.43
2022-11-16T10:05:44.958Z,3.63
2022-11-16T10:08:18.790Z,3.47
2022-11-16T10:10:51.800Z,3.43
2022-11-16T10:13:32.068Z,3.00
2022-11-16T10:16:03.750Z,3.27
2022-11-16T10:18:59.897Z,3.07
2022-11-16T10:21:40.686Z,3.00
2022-11-16T10:24:25.228Z,3.10
2022-11-16T10:26:59.479Z,3.67
2022-11-16T10:29:37.008Z,3.30
2022-11-16T10:32:16.474Z,3.60
2022-11-16T10:35:13.383Z,2.83
2022-11-16T10:38:15.202Z,2.77
2022-11-16T10:41:46.396Z,2.53
2022-11-16T10:57:01.559Z,2.60
2022-11-16T11:11:51.093Z,1.73
2022-11-16T13:45:53.670Z,1.40
2022-11-16T13:48:24.580Z,1.70
2022-11-16T13:50:55.050Z,1.70
2022-11-16T13:56:25.573Z,2.07
2022-11-16T13:58:57.382Z,1.80
2022-11-16T14:01:26.660Z,1.47
2022-11-16T14:04:35.794Z,1.63
2022-11-16T14:07:09.083Z,1.47
2022-11-16T14:09:50.507Z,1.80
2022-11-16T14:12:49.769Z,1.47
2022-11-16T14:15:28.434Z,1.80
2022-11-16T14:17:58.446Z,1.80
2022-11-16T14:20:43.716Z,1.23
2022-11-16T14:23:17.889Z,1.30
2022-11-16T14:25:50.459Z,1.57
2022-11-16T14:28:28.927Z,1.50
2022-11-16T14:31:02.444Z,1.70
2022-11-16T14:33:35.079Z,1.60
2022-11-16T14:36:09.604Z,1.47
2022-11-16T14:38:39.024Z,1.57
2022-11-16T14:41:08.004Z,1.73
2022-11-16T14:43:39.855Z,1.40
2022-11-16T14:46:10.019Z,1.60
2022-11-16T14:48:44.400Z,2.33
2022-11-16T14:51:15.470Z,1.90
2022-11-16T14:53:53.983Z,1.60
2022-11-16T14:56:28.058Z,1.40
2022-11-16T14:58:57.126Z,2.17
2022-11-16T15:01:26.124Z,1.70
2022-11-16T15:03:56.498Z,1.80
2022-11-16T15:06:26.569Z,2.30
2022-11-16T15:08:55.684Z,1.77
2022-11-16T15:11:25.825Z,2.00
2022-11-16T15:13:54.358Z,2.23
2022-11-16T15:16:22.500Z,1.90
2022-11-16T15:19:00.545Z,1.90
2022-11-16T15:21:39.257Z,1.97
2022-11-16T15:24:29.526Z,2.37
2022-11-16T15:27:03.355Z,2.57
2022-11-16T15:29:34.646Z,2.20
2022-11-16T15:32:04.515Z,2.23
2022-11-16T15:34:33.275Z,1.97
2022-11-16T15:37:02.806Z,1.60
2022-11-16T15:39:34.259Z,1.47
2022-11-16T15:42:04.249Z,1.60
2022-11-16T15:44:35.506Z,2.03
2022-11-16T15:47:05.814Z,1.67
2022-11-16T15:49:39.315Z,2.83
2022-11-16T15:52:08.948Z,2.17
2022-11-16T15:54:53.107Z,1.33
2022-11-16T15:57:25.649Z,1.40
2022-11-16T15:59:55.643Z,1.53
2022-11-16T16:02:24.841Z,2.73
2022-11-16T16:04:53.067Z,1.33
2022-11-16T16:07:38.173Z,1.67
2022-11-16T16:10:31.055Z,1.63
2022-11-16T16:13:00.650Z,2.00
2022-11-16T16:15:34.392Z,1.90
2022-11-16T16:18:03.058Z,1.47
2022-11-16T16:20:32.485Z,1.87
2022-11-16T16:23:08.976Z,2.00
2022-11-16T16:25:37.325Z,2.27
2022-11-16T16:28:05.445Z,1.80
2022-11-16T16:30:39.629Z,1.83
2022-11-16T16:33:07.787Z,1.90
2022-11-16T16:35:36.689Z,1.33
2022-11-16T16:38:11.408Z,2.37
2022-11-16T16:40:42.439Z,2.20
2022-11-16T16:43:10.538Z,1.53
2022-11-16T16:45:46.486Z,1.63
2022-11-16T16:48:15.068Z,1.10
2022-11-16T16:50:45.268Z,1.93
2022-11-16T16:53:15.366Z,1.40
2022-11-16T16:55:43.766Z,2.00
2022-11-16T16:58:12.683Z,3.37
2022-11-16T17:00:43.118Z,1.50
2022-11-16T17:03:14.378Z,1.50
2022-11-16T17:05:42.764Z,1.83
2022-11-16T17:08:11.247Z,2.30
2022-11-16T17:10:42.433Z,1.87
2022-11-16T17:13:11.707Z,1.33
2022-11-16T17:15:39.966Z,1.40
2022-11-16T17:18:08.239Z,2.40
2022-11-16T17:20:37.552Z,1.50
2022-11-16T17:23:06.144Z,1.60
2022-11-16T17:25:39.605Z,2.43
2022-11-16T17:28:09.218Z,1.87
2022-11-16T17:30:37.496Z,2.30
2022-11-16T17:33:06.987Z,3.30
2022-11-16T17:35:36.225Z,3.17
2022-11-16T17:38:04.797Z,2.67
2022-11-16T17:40:32.993Z,2.33
2022-11-16T17:43:01.098Z,2.50
2022-11-16T17:45:30.588Z,2.03
2022-11-16T17:47:58.689Z,2.20
2022-11-16T17:50:27.893Z,6.50
2022-11-16T17:52:56.036Z,3.87
2022-11-16T17:55:25.793Z,2.27
2022-11-16T17:57:55.848Z,2.23
2022-11-16T18:00:24.572Z,2.63
2022-11-16T18:02:55.120Z,2.43
2022-11-16T18:05:23.766Z,3.17
2022-11-16T18:07:52.833Z,2.60
2022-11-16T18:10:21.540Z,3.53
2022-11-16T18:12:49.934Z,2.10
2022-11-16T18:15:37.787Z,2.33
2022-11-16T18:18:10.587Z,3.43
2022-11-16T18:20:38.729Z,2.60
2022-11-16T18:23:06.886Z,3.10
2022-11-16T18:25:36.734Z,3.00
2022-11-16T18:28:05.287Z,3.57
2022-11-16T18:30:33.463Z,3.23
2022-11-16T18:33:01.641Z,3.37
2022-11-16T18:35:35.237Z,2.67
2022-11-16T18:38:03.603Z,3.53
2022-11-16T18:40:31.969Z,2.20
2022-11-16T18:43:00.220Z,2.37
2022-11-16T18:45:28.626Z,2.40
2022-11-16T18:47:57.004Z,2.43
2022-11-16T18:50:26.990Z,2.10
2022-11-16T18:52:57.935Z,2.83
2022-11-16T18:55:30.164Z,2.50
2022-11-16T18:57:59.669Z,2.43
2022-11-16T19:00:27.917Z,2.93
2022-11-16T19:02:56.176Z,2.70
2022-11-16T19:05:24.480Z,1.93
2022-11-16T19:07:52.754Z,2.37
2022-11-16T19:10:25.564Z,2.60
2022-11-16T19:12:53.750Z,1.90
2022-11-16T19:15:22.217Z,2.27
2022-11-16T19:18:14.654Z,2.77
2022-11-16T19:20:44.280Z,2.17
2022-11-16T19:23:18.802Z,2.20
2022-11-16T19:25:48.495Z,1.80
2022-11-16T19:28:18.116Z,2.10
2022-11-16T19:30:47.755Z,2.47
2022-11-16T19:33:16.226Z,2.23
2022-11-16T19:35:44.461Z,2.50
2022-11-16T19:38:14.954Z,2.17
2022-11-16T19:40:45.049Z,1.77
2022-11-16T19:43:14.894Z,2.00
2022-11-16T19:45:48.580Z,2.40
2022-11-16T19:48:17.128Z,2.00
2022-11-16T19:50:46.642Z,2.60
2022-11-16T19:53:15.752Z,2.47
2022-11-16T19:55:44.861Z,2.37
2022-11-16T19:58:19.514Z,2.50
2022-11-16T20:00:51.562Z,2.67
2022-11-16T20:03:26.969Z,1.97
2022-11-16T20:06:11.107Z,1.70
2022-11-16T20:08:39.451Z,2.43
2022-11-16T20:11:16.833Z,2.63
2022-11-16T20:13:47.179Z,1.93
2022-11-16T20:16:20.513Z,1.60
2022-11-16T20:18:48.770Z,1.27
2022-11-16T20:21:20.894Z,1.53
2022-11-16T20:23:49.106Z,1.57
2022-11-16T20:26:17.367Z,1.10
2022-11-16T20:28:47.081Z,1.67
2022-11-16T20:31:24.066Z,1.80
2022-11-16T20:33:52.956Z,2.50
2022-11-16T20:36:22.806Z,1.50
2022-11-16T20:38:51.338Z,1.60
2022-11-16T20:41:23.368Z,1.30
2022-11-16T20:43:53.992Z,1.50
2022-11-16T20:46:25.084Z,1.60
2022-11-16T20:48:53.507Z,1.23
2022-11-16T20:51:25.941Z,1.70
2022-11-16T20:53:55.720Z,1.53
2022-11-16T20:56:24.065Z,1.97
2022-11-16T20:58:53.671Z,2.30
2022-11-16T21:01:28.427Z,2.23
2022-11-16T21:03:56.891Z,1.80
2022-11-16T21:06:25.413Z,1.97
2022-11-16T21:08:53.670Z,1.40
2022-11-16T21:11:23.223Z,2.60
2022-11-16T21:14:08.629Z,1.60
2022-11-16T21:16:38.774Z,2.17
2022-11-16T21:19:07.053Z,1.27
2022-11-16T21:21:37.611Z,1.60
2022-11-16T21:24:11.280Z,1.80
2022-11-16T21:26:39.524Z,1.43
2022-11-16T21:29:07.770Z,1.30
2022-11-16T21:31:42.899Z,1.47
2022-11-16T21:34:11.793Z,1.60
2022-11-16T21:36:40.081Z,1.20
2022-11-16T21:39:08.424Z,1.93
2022-11-16T21:41:37.060Z,1.27
2022-11-16T21:44:05.352Z,1.33
2022-11-16T21:46:37.518Z,1.63
2022-11-16T21:49:09.471Z,1.93
2022-11-16T21:51:38.333Z,1.53
2022-11-16T21:54:06.719Z,1.17
2022-11-16T21:56:35.001Z,1.23
2022-11-16T21:59:03.287Z,1.60
2022-11-16T22:01:52.872Z,1.13
2022-11-16T22:04:42.777Z,1.60
2022-11-16T22:07:32.166Z,1.50
2022-11-16T22:10:08.215Z,1.70
2022-11-16T22:12:38.087Z,1.27
2022-11-16T22:15:07.185Z,1.17
2022-11-16T22:17:35.389Z,1.00
2022-11-16T22:20:08.471Z,1.30
2022-11-16T22:22:37.801Z,1.40
2022-11-16T22:25:07.200Z,1.37
2022-11-16T22:27:47.039Z,0.97
2022-11-16T22:30:23.670Z,0.90
2022-11-16T22:32:57.420Z,1.20
2022-11-16T22:35:27.009Z,1.13
2022-11-16T22:37:56.056Z,1.40
2022-11-16T22:40:24.291Z,1.07
2022-11-16T22:42:53.713Z,1.43
2022-11-16T22:45:21.935Z,1.50
2022-11-16T22:47:54.768Z,1.20
2022-11-16T22:50:24.375Z,1.50
2022-11-16T22:52:54.038Z,1.40
2022-11-16T22:55:22.475Z,1.33
2022-11-16T22:57:50.969Z,1.47
2022-11-16T23:00:20.044Z,1.10
2022-11-16T23:02:48.519Z,1.40
2022-11-16T23:05:17.950Z,1.43
2022-11-16T23:07:46.306Z,1.30
2022-11-16T23:10:16.108Z,1.60
2022-11-16T23:13:01.922Z,1.33
2022-11-16T23:15:49.856Z,1.93
2022-11-16T23:18:19.600Z,1.47
2022-11-16T23:21:05.414Z,1.50
2022-11-16T23:23:50.848Z,1.70
2022-11-16T23:26:40.692Z,1.73
2022-11-16T23:29:10.055Z,1.70
2022-11-16T23:31:38.238Z,1.50
2022-11-16T23:34:06.605Z,1.73
2022-11-16T23:36:35.989Z,1.63
2022-11-16T23:39:04.231Z,1.70
2022-11-16T23:41:53.377Z,1.57
2022-11-16T23:44:21.573Z,2.10
2022-11-16T23:46:49.765Z,1.93
2022-11-16T23:49:18.092Z,1.90
2022-11-16T23:51:46.397Z,1.60
2022-11-16T23:54:14.580Z,1.60
2022-11-16T23:56:49.961Z,2.07
2022-11-16T23:59:18.129Z,1.60
